sensor_id;sensor_type;location;lat;lon;timestamp;temperature;humidity
52963;DHT22;38827;53.024;6.596;2024-03-25T00:00:33;6.10;80.60
52963;DHT22;38827;53.024;6.596;2024-03-25T00:03:05;6.10;80.70
52963;DHT22;38827;53.024;6.596;2024-03-25T00:05:46;6.10;80.50
52963;DHT22;38827;53.024;6.596;2024-03-25T00:08:12;6.10;80.50
52963;DHT22;38827;53.024;6.596;2024-03-25T00:10:56;6.10;80.50
52963;DHT22;38827;53.024;6.596;2024-03-25T00:13:56;6.10;80.50
52963;DHT22;38827;53.024;6.596;2024-03-25T00:16:32;6.10;80.50
52963;DHT22;38827;53.024;6.596;2024-03-25T00:19:02;6.00;80.40
52963;DHT22;38827;53.024;6.596;2024-03-25T00:21:33;5.90;80.60
52963;DHT22;38827;53.024;6.596;2024-03-25T00:24:11;5.90;80.80
52963;DHT22;38827;53.024;6.596;2024-03-25T00:26:49;5.90;80.60
52963;DHT22;38827;53.024;6.596;2024-03-25T00:29:30;5.80;81.00
52963;DHT22;38827;53.024;6.596;2024-03-25T00:31:56;5.80;81.10
52963;DHT22;38827;53.024;6.596;2024-03-25T00:34:34;5.80;81.30
52963;DHT22;38827;53.024;6.596;2024-03-25T00:37:13;5.80;81.40
52963;DHT22;38827;53.024;6.596;2024-03-25T00:39:58;5.80;81.50
52963;DHT22;38827;53.024;6.596;2024-03-25T00:42:51;5.80;81.60
52963;DHT22;38827;53.024;6.596;2024-03-25T00:45:36;5.80;81.70
52963;DHT22;38827;53.024;6.596;2024-03-25T00:48:02;5.80;81.80
52963;DHT22;38827;53.024;6.596;2024-03-25T00:50:59;5.80;81.90
52963;DHT22;38827;53.024;6.596;2024-03-25T00:53:39;5.80;81.70
52963;DHT22;38827;53.024;6.596;2024-03-25T00:56:05;5.80;81.40
52963;DHT22;38827;53.024;6.596;2024-03-25T00:58:40;5.70;81.90
52963;DHT22;38827;53.024;6.596;2024-03-25T01:01:21;5.80;82.20
52963;DHT22;38827;53.024;6.596;2024-03-25T01:03:54;5.80;82.10
52963;DHT22;38827;53.024;6.596;2024-03-25T01:06:30;5.80;82.20
52963;DHT22;38827;53.024;6.596;2024-03-25T01:09:05;5.80;82.10
52963;DHT22;38827;53.024;6.596;2024-03-25T01:11:36;5.70;82.10
52963;DHT22;38827;53.024;6.596;2024-03-25T01:14:04;5.70;82.20
52963;DHT22;38827;53.024;6.596;2024-03-25T01:16:36;5.70;82.30
52963;DHT22;38827;53.024;6.596;2024-03-25T01:22:44;5.70;82.30
52963;DHT22;38827;53.024;6.596;2024-03-25T01:25:31;5.70;82.20
52963;DHT22;38827;53.024;6.596;2024-03-25T01:28:03;5.70;82.10
52963;DHT22;38827;53.024;6.596;2024-03-25T01:30:31;5.70;81.90
52963;DHT22;38827;53.024;6.596;2024-03-25T01:32:57;5.70;82.20
52963;DHT22;38827;53.024;6.596;2024-03-25T01:35:32;5.80;82.00
52963;DHT22;38827;53.024;6.596;2024-03-25T01:38:08;5.80;81.90
52963;DHT22;38827;53.024;6.596;2024-03-25T01:40:39;5.80;81.90
52963;DHT22;38827;53.024;6.596;2024-03-25T01:43:05;5.90;81.90
52963;DHT22;38827;53.024;6.596;2024-03-25T01:45:33;5.90;81.80
52963;DHT22;38827;53.024;6.596;2024-03-25T01:48:05;5.90;81.80
52963;DHT22;38827;53.024;6.596;2024-03-25T01:50:35;5.90;81.70
52963;DHT22;38827;53.024;6.596;2024-03-25T01:53:02;5.90;81.80
52963;DHT22;38827;53.024;6.596;2024-03-25T01:55:34;5.80;81.90
52963;DHT22;38827;53.024;6.596;2024-03-25T01:58:01;5.80;81.80
52963;DHT22;38827;53.024;6.596;2024-03-25T02:00:27;5.80;81.90
52963;DHT22;38827;53.024;6.596;2024-03-25T02:02:55;5.80;81.80
52963;DHT22;38827;53.024;6.596;2024-03-25T02:05:22;5.80;81.90
52963;DHT22;38827;53.024;6.596;2024-03-25T02:07:48;5.80;81.90
52963;DHT22;38827;53.024;6.596;2024-03-25T02:10:14;5.90;81.90
52963;DHT22;38827;53.024;6.596;2024-03-25T02:42:06;5.80;81.50
52963;DHT22;38827;53.024;6.596;2024-03-25T02:44:44;5.80;81.40
52963;DHT22;38827;53.024;6.596;2024-03-25T02:47:10;5.80;81.60
52963;DHT22;38827;53.024;6.596;2024-03-25T02:49:37;5.80;81.50
52963;DHT22;38827;53.024;6.596;2024-03-25T02:52:03;5.80;81.40
52963;DHT22;38827;53.024;6.596;2024-03-25T02:54:44;5.80;81.40
52963;DHT22;38827;53.024;6.596;2024-03-25T02:57:12;5.80;81.30
52963;DHT22;38827;53.024;6.596;2024-03-25T03:02:44;5.80;81.50
52963;DHT22;38827;53.024;6.596;2024-03-25T03:05:53;5.90;81.50
52963;DHT22;38827;53.024;6.596;2024-03-25T03:08:23;5.90;81.10
52963;DHT22;38827;53.024;6.596;2024-03-25T03:11:02;5.90;81.20
52963;DHT22;38827;53.024;6.596;2024-03-25T03:13:32;5.90;81.00
52963;DHT22;38827;53.024;6.596;2024-03-25T03:16:01;5.90;81.00
52963;DHT22;38827;53.024;6.596;2024-03-25T03:18:30;5.90;80.70
52963;DHT22;38827;53.024;6.596;2024-03-25T03:21:34;6.00;80.40
52963;DHT22;38827;53.024;6.596;2024-03-25T03:24:50;6.00;80.10
52963;DHT22;38827;53.024;6.596;2024-03-25T03:27:16;6.00;79.70
52963;DHT22;38827;53.024;6.596;2024-03-25T03:29:46;6.00;79.80
52963;DHT22;38827;53.024;6.596;2024-03-25T03:34:51;6.10;79.60
52963;DHT22;38827;53.024;6.596;2024-03-25T03:37:30;6.10;79.50
52963;DHT22;38827;53.024;6.596;2024-03-25T03:40:18;6.10;79.30
52963;DHT22;38827;53.024;6.596;2024-03-25T03:42:46;6.10;78.80
52963;DHT22;38827;53.024;6.596;2024-03-25T03:45:25;6.10;78.80
52963;DHT22;38827;53.024;6.596;2024-03-25T03:48:12;6.10;78.60
52963;DHT22;38827;53.024;6.596;2024-03-25T03:50:42;6.10;78.40
52963;DHT22;38827;53.024;6.596;2024-03-25T03:53:27;6.10;78.50
52963;DHT22;38827;53.024;6.596;2024-03-25T03:56:20;6.10;78.40
52963;DHT22;38827;53.024;6.596;2024-03-25T03:58:51;6.00;78.50
52963;DHT22;38827;53.024;6.596;2024-03-25T04:01:20;6.00;78.80
52963;DHT22;38827;53.024;6.596;2024-03-25T04:03:52;6.00;78.80
52963;DHT22;38827;53.024;6.596;2024-03-25T04:06:36;6.00;78.90
52963;DHT22;38827;53.024;6.596;2024-03-25T04:09:22;5.90;78.70
52963;DHT22;38827;53.024;6.596;2024-03-25T04:12:04;5.90;78.90
52963;DHT22;38827;53.024;6.596;2024-03-25T04:14:49;5.90;79.00
52963;DHT22;38827;53.024;6.596;2024-03-25T04:17:53;5.90;78.80
52963;DHT22;38827;53.024;6.596;2024-03-25T04:20:27;5.90;78.80
52963;DHT22;38827;53.024;6.596;2024-03-25T04:22:56;5.90;78.90
52963;DHT22;38827;53.024;6.596;2024-03-25T04:25:25;5.80;78.90
52963;DHT22;38827;53.024;6.596;2024-03-25T04:27:56;5.80;79.10
52963;DHT22;38827;53.024;6.596;2024-03-25T04:30:34;5.80;79.10
52963;DHT22;38827;53.024;6.596;2024-03-25T04:33:18;5.80;79.30
52963;DHT22;38827;53.024;6.596;2024-03-25T04:35:47;5.80;79.40
52963;DHT22;38827;53.024;6.596;2024-03-25T04:38:22;5.80;79.70
52963;DHT22;38827;53.024;6.596;2024-03-25T04:41:06;5.80;79.70
52963;DHT22;38827;53.024;6.596;2024-03-25T04:43:47;5.80;79.80
52963;DHT22;38827;53.024;6.596;2024-03-25T04:46:25;5.70;79.90
52963;DHT22;38827;53.024;6.596;2024-03-25T04:49:03;5.70;80.20
52963;DHT22;38827;53.024;6.596;2024-03-25T04:51:34;5.70;80.30
52963;DHT22;38827;53.024;6.596;2024-03-25T04:54:03;5.60;80.50
52963;DHT22;38827;53.024;6.596;2024-03-25T04:56:32;5.60;80.50
52963;DHT22;38827;53.024;6.596;2024-03-25T04:59:10;5.60;80.70
52963;DHT22;38827;53.024;6.596;2024-03-25T05:02:01;5.50;80.70
52963;DHT22;38827;53.024;6.596;2024-03-25T05:04:49;5.40;81.00
52963;DHT22;38827;53.024;6.596;2024-03-25T05:07:14;5.30;81.40
52963;DHT22;38827;53.024;6.596;2024-03-25T05:09:40;5.30;81.50
52963;DHT22;38827;53.024;6.596;2024-03-25T05:12:21;5.20;81.70
52963;DHT22;38827;53.024;6.596;2024-03-25T05:15:20;5.20;82.00
52963;DHT22;38827;53.024;6.596;2024-03-25T05:18:16;5.20;82.10
52963;DHT22;38827;53.024;6.596;2024-03-25T05:20:57;5.20;82.40
52963;DHT22;38827;53.024;6.596;2024-03-25T05:26:27;5.20;82.80
52963;DHT22;38827;53.024;6.596;2024-03-25T05:29:05;5.20;82.70
52963;DHT22;38827;53.024;6.596;2024-03-25T05:31:34;5.30;82.60
52963;DHT22;38827;53.024;6.596;2024-03-25T05:34:06;5.30;82.50
52963;DHT22;38827;53.024;6.596;2024-03-25T05:37:11;5.30;82.50
52963;DHT22;38827;53.024;6.596;2024-03-25T05:40:04;5.40;82.40
52963;DHT22;38827;53.024;6.596;2024-03-25T05:45:28;5.40;82.50
52963;DHT22;38827;53.024;6.596;2024-03-25T05:47:56;5.50;82.40
52963;DHT22;38827;53.024;6.596;2024-03-25T05:50:45;5.50;82.50
52963;DHT22;38827;53.024;6.596;2024-03-25T05:53:58;5.50;82.60
52963;DHT22;38827;53.024;6.596;2024-03-25T05:56:40;5.50;82.60
52963;DHT22;38827;53.024;6.596;2024-03-25T05:59:05;5.50;82.90
52963;DHT22;38827;53.024;6.596;2024-03-25T06:05:03;5.50;83.00
52963;DHT22;38827;53.024;6.596;2024-03-25T06:09:57;5.40;83.20
52963;DHT22;38827;53.024;6.596;2024-03-25T06:12:40;5.50;83.40
52963;DHT22;38827;53.024;6.596;2024-03-25T06:15:12;5.50;83.40
52963;DHT22;38827;53.024;6.596;2024-03-25T06:18:21;5.60;83.70
52963;DHT22;38827;53.024;6.596;2024-03-25T06:24:43;5.80;83.20
52963;DHT22;38827;53.024;6.596;2024-03-25T06:31:03;6.00;82.80
52963;DHT22;38827;53.024;6.596;2024-03-25T06:37:59;6.30;82.20
52963;DHT22;38827;53.024;6.596;2024-03-25T07:25:59;8.60;77.70
52963;DHT22;38827;53.024;6.596;2024-03-25T07:28:31;9.20;76.50
52963;DHT22;38827;53.024;6.596;2024-03-25T07:30:57;9.70;74.50
52963;DHT22;38827;53.024;6.596;2024-03-25T07:33:22;10.10;73.20
52963;DHT22;38827;53.024;6.596;2024-03-25T07:35:48;10.40;71.80
52963;DHT22;38827;53.024;6.596;2024-03-25T07:38:15;10.70;71.00
52963;DHT22;38827;53.024;6.596;2024-03-25T07:40:40;11.10;70.10
52963;DHT22;38827;53.024;6.596;2024-03-25T07:43:13;11.60;68.70
52963;DHT22;38827;53.024;6.596;2024-03-25T07:45:48;12.30;66.40
52963;DHT22;38827;53.024;6.596;2024-03-25T07:48:24;13.00;65.00
52963;DHT22;38827;53.024;6.596;2024-03-25T07:53:38;13.00;63.30
52963;DHT22;38827;53.024;6.596;2024-03-25T07:56:25;12.50;62.40
52963;DHT22;38827;53.024;6.596;2024-03-25T07:59:03;11.80;62.90
52963;DHT22;38827;53.024;6.596;2024-03-25T08:01:34;11.20;65.00
52963;DHT22;38827;53.024;6.596;2024-03-25T08:04:12;10.60;66.60
52963;DHT22;38827;53.024;6.596;2024-03-25T08:06:49;10.10;67.40
52963;DHT22;38827;53.024;6.596;2024-03-25T08:09:15;9.60;68.80
52963;DHT22;38827;53.024;6.596;2024-03-25T08:11:45;9.20;70.30
52963;DHT22;38827;53.024;6.596;2024-03-25T08:14:14;9.00;71.20
52963;DHT22;38827;53.024;6.596;2024-03-25T08:16:47;8.80;71.40
52963;DHT22;38827;53.024;6.596;2024-03-25T08:19:44;8.60;71.80
52963;DHT22;38827;53.024;6.596;2024-03-25T08:22:10;8.40;72.30
52963;DHT22;38827;53.024;6.596;2024-03-25T08:24:41;8.30;73.00
52963;DHT22;38827;53.024;6.596;2024-03-25T08:27:29;8.30;73.40
52963;DHT22;38827;53.024;6.596;2024-03-25T08:30:07;8.40;73.10
52963;DHT22;38827;53.024;6.596;2024-03-25T08:32:39;8.50;73.40
52963;DHT22;38827;53.024;6.596;2024-03-25T08:35:40;9.00;73.20
52963;DHT22;38827;53.024;6.596;2024-03-25T08:38:05;9.40;71.80
52963;DHT22;38827;53.024;6.596;2024-03-25T08:41:03;9.90;71.40
52963;DHT22;38827;53.024;6.596;2024-03-25T08:43:29;10.60;68.40
52963;DHT22;38827;53.024;6.596;2024-03-25T08:46:17;11.10;68.40
52963;DHT22;38827;53.024;6.596;2024-03-25T08:48:58;12.20;66.00
52963;DHT22;38827;53.024;6.596;2024-03-25T08:51:27;13.70;62.90
52963;DHT22;38827;53.024;6.596;2024-03-25T08:53:53;14.90;59.90
52963;DHT22;38827;53.024;6.596;2024-03-25T08:56:34;15.90;57.50
52963;DHT22;38827;53.024;6.596;2024-03-25T08:59:06;17.10;54.50
52963;DHT22;38827;53.024;6.596;2024-03-25T09:01:36;18.00;53.00
52963;DHT22;38827;53.024;6.596;2024-03-25T09:04:11;18.90;51.00
52963;DHT22;38827;53.024;6.596;2024-03-25T09:06:43;19.60;48.50
52963;DHT22;38827;53.024;6.596;2024-03-25T09:09:22;19.30;47.10
52963;DHT22;38827;53.024;6.596;2024-03-25T09:12:16;18.20;46.90
52963;DHT22;38827;53.024;6.596;2024-03-25T09:14:51;17.00;49.40
52963;DHT22;38827;53.024;6.596;2024-03-25T09:20:07;17.30;48.60
52963;DHT22;38827;53.024;6.596;2024-03-25T09:25:56;17.40;47.90
52963;DHT22;38827;53.024;6.596;2024-03-25T09:28:49;16.60;49.40
52963;DHT22;38827;53.024;6.596;2024-03-25T09:31:15;16.30;48.90
52963;DHT22;38827;53.024;6.596;2024-03-25T09:34:04;15.90;50.30
52963;DHT22;38827;53.024;6.596;2024-03-25T09:36:45;15.60;49.40
52963;DHT22;38827;53.024;6.596;2024-03-25T09:39:15;14.90;51.30
52963;DHT22;38827;53.024;6.596;2024-03-25T09:42:07;14.40;51.90
52963;DHT22;38827;53.024;6.596;2024-03-25T09:45:06;14.20;53.30
52963;DHT22;38827;53.024;6.596;2024-03-25T09:47:48;15.60;52.40
52963;DHT22;38827;53.024;6.596;2024-03-25T09:50:15;17.10;50.30
52963;DHT22;38827;53.024;6.596;2024-03-25T09:52:59;18.00;47.80
52963;DHT22;38827;53.024;6.596;2024-03-25T09:55:33;17.90;46.10
52963;DHT22;38827;53.024;6.596;2024-03-25T10:04:26;15.30;48.90
52963;DHT22;38827;53.024;6.596;2024-03-25T10:06:59;14.70;52.20
52963;DHT22;38827;53.024;6.596;2024-03-25T10:09:33;15.40;51.40
52963;DHT22;38827;53.024;6.596;2024-03-25T10:12:17;16.40;50.10
52963;DHT22;38827;53.024;6.596;2024-03-25T10:14:44;16.50;48.30
52963;DHT22;38827;53.024;6.596;2024-03-25T10:17:10;16.10;49.30
52963;DHT22;38827;53.024;6.596;2024-03-25T10:19:41;15.60;50.20
52963;DHT22;38827;53.024;6.596;2024-03-25T10:32:42;16.60;48.70
52963;DHT22;38827;53.024;6.596;2024-03-25T10:38:57;18.40;44.70
52963;DHT22;38827;53.024;6.596;2024-03-25T10:42:20;18.40;46.10
52963;DHT22;38827;53.024;6.596;2024-03-25T10:45:02;19.00;44.40
52963;DHT22;38827;53.024;6.596;2024-03-25T10:47:53;18.70;44.80
52963;DHT22;38827;53.024;6.596;2024-03-25T10:56:27;18.30;44.50
52963;DHT22;38827;53.024;6.596;2024-03-25T10:59:12;19.30;42.90
52963;DHT22;38827;53.024;6.596;2024-03-25T11:01:57;20.40;40.00
52963;DHT22;38827;53.024;6.596;2024-03-25T11:04:23;21.00;40.30
52963;DHT22;38827;53.024;6.596;2024-03-25T11:44:24;14.80;49.70
52963;DHT22;38827;53.024;6.596;2024-03-25T11:46:51;15.50;48.10
52963;DHT22;38827;53.024;6.596;2024-03-25T11:49:20;16.20;47.00
52963;DHT22;38827;53.024;6.596;2024-03-25T11:51:46;16.90;45.60
52963;DHT22;38827;53.024;6.596;2024-03-25T11:54:12;17.50;45.00
52963;DHT22;38827;53.024;6.596;2024-03-25T11:56:38;17.90;44.40
52963;DHT22;38827;53.024;6.596;2024-03-25T11:59:04;18.20;43.60
52963;DHT22;38827;53.024;6.596;2024-03-25T12:01:30;18.50;43.40
52963;DHT22;38827;53.024;6.596;2024-03-25T12:04:10;18.60;42.90
52963;DHT22;38827;53.024;6.596;2024-03-25T12:06:36;19.00;42.10
52963;DHT22;38827;53.024;6.596;2024-03-25T12:09:02;19.20;42.20
52963;DHT22;38827;53.024;6.596;2024-03-25T12:11:47;19.40;42.20
52963;DHT22;38827;53.024;6.596;2024-03-25T12:14:13;19.00;42.30
52963;DHT22;38827;53.024;6.596;2024-03-25T12:16:40;18.50;41.80
52963;DHT22;38827;53.024;6.596;2024-03-25T12:19:12;18.10;43.70
52963;DHT22;38827;53.024;6.596;2024-03-25T12:21:41;18.00;43.50
52963;DHT22;38827;53.024;6.596;2024-03-25T12:24:13;18.10;43.60
52963;DHT22;38827;53.024;6.596;2024-03-25T12:26:40;18.50;43.30
52963;DHT22;38827;53.024;6.596;2024-03-25T12:29:27;18.90;43.10
52963;DHT22;38827;53.024;6.596;2024-03-25T12:31:57;19.40;41.40
52963;DHT22;38827;53.024;6.596;2024-03-25T12:34:29;19.50;41.50
52963;DHT22;38827;53.024;6.596;2024-03-25T12:37:04;19.40;41.60
52963;DHT22;38827;53.024;6.596;2024-03-25T12:39:56;19.60;41.20
52963;DHT22;38827;53.024;6.596;2024-03-25T12:42:34;19.70;40.60
52963;DHT22;38827;53.024;6.596;2024-03-25T12:45:22;19.30;41.40
52963;DHT22;38827;53.024;6.596;2024-03-25T12:47:58;19.10;40.70
52963;DHT22;38827;53.024;6.596;2024-03-25T12:58:14;18.20;41.40
52963;DHT22;38827;53.024;6.596;2024-03-25T13:00:40;17.70;42.20
52963;DHT22;38827;53.024;6.596;2024-03-25T13:03:53;17.30;42.80
52963;DHT22;38827;53.024;6.596;2024-03-25T13:06:19;17.00;42.80
52963;DHT22;38827;53.024;6.596;2024-03-25T13:08:50;17.00;43.80
52963;DHT22;38827;53.024;6.596;2024-03-25T13:11:18;17.00;43.20
52963;DHT22;38827;53.024;6.596;2024-03-25T13:13:52;17.00;43.50
52963;DHT22;38827;53.024;6.596;2024-03-25T13:16:35;17.20;43.50
52963;DHT22;38827;53.024;6.596;2024-03-25T13:19:09;17.40;43.50
52963;DHT22;38827;53.024;6.596;2024-03-25T13:22:14;18.00;43.30
52963;DHT22;38827;53.024;6.596;2024-03-25T13:24:42;18.70;42.80
52963;DHT22;38827;53.024;6.596;2024-03-25T13:27:11;19.20;41.70
52963;DHT22;38827;53.024;6.596;2024-03-25T13:29:55;19.40;40.90
52963;DHT22;38827;53.024;6.596;2024-03-25T13:32:43;19.40;39.40
52963;DHT22;38827;53.024;6.596;2024-03-25T13:39:02;19.20;39.10
52963;DHT22;38827;53.024;6.596;2024-03-25T13:41:28;19.50;38.00
52963;DHT22;38827;53.024;6.596;2024-03-25T13:44:09;19.60;38.20
52963;DHT22;38827;53.024;6.596;2024-03-25T13:46:44;19.60;37.40
52963;DHT22;38827;53.024;6.596;2024-03-25T13:49:15;19.60;37.90
52963;DHT22;38827;53.024;6.596;2024-03-25T13:51:43;19.80;38.00
52963;DHT22;38827;53.024;6.596;2024-03-25T13:54:21;19.80;37.80
52963;DHT22;38827;53.024;6.596;2024-03-25T13:56:52;19.90;38.00
52963;DHT22;38827;53.024;6.596;2024-03-25T13:59:30;20.10;38.10
52963;DHT22;38827;53.024;6.596;2024-03-25T14:02:12;20.20;37.80
52963;DHT22;38827;53.024;6.596;2024-03-25T14:04:38;20.30;36.60
52963;DHT22;38827;53.024;6.596;2024-03-25T14:07:24;20.20;37.80
52963;DHT22;38827;53.024;6.596;2024-03-25T14:10:06;20.40;36.80
52963;DHT22;38827;53.024;6.596;2024-03-25T14:12:32;20.10;36.50
52963;DHT22;38827;53.024;6.596;2024-03-25T14:14:57;19.30;37.30
52963;DHT22;38827;53.024;6.596;2024-03-25T14:20:23;17.50;38.30
52963;DHT22;38827;53.024;6.596;2024-03-25T14:22:58;16.90;39.10
52963;DHT22;38827;53.024;6.596;2024-03-25T14:25:29;16.40;40.10
52963;DHT22;38827;53.024;6.596;2024-03-25T14:27:56;15.90;40.80
52963;DHT22;38827;53.024;6.596;2024-03-25T14:30:32;15.50;41.10
52963;DHT22;38827;53.024;6.596;2024-03-25T14:32:58;15.30;41.20
52963;DHT22;38827;53.024;6.596;2024-03-25T14:35:39;15.10;41.20
52963;DHT22;38827;53.024;6.596;2024-03-25T14:38:08;15.00;41.60
52963;DHT22;38827;53.024;6.596;2024-03-25T14:40:49;14.80;42.10
52963;DHT22;38827;53.024;6.596;2024-03-25T14:43:15;14.70;43.80
52963;DHT22;38827;53.024;6.596;2024-03-25T14:45:53;14.70;44.80
52963;DHT22;38827;53.024;6.596;2024-03-25T14:48:20;15.00;45.40
52963;DHT22;38827;53.024;6.596;2024-03-25T14:51:24;15.10;45.60
52963;DHT22;38827;53.024;6.596;2024-03-25T14:53:54;15.10;46.00
52963;DHT22;38827;53.024;6.596;2024-03-25T14:56:21;14.90;46.20
52963;DHT22;38827;53.024;6.596;2024-03-25T14:58:49;14.90;45.90
52963;DHT22;38827;53.024;6.596;2024-03-25T15:01:30;14.90;46.10
52963;DHT22;38827;53.024;6.596;2024-03-25T15:04:01;15.40;45.40
52963;DHT22;38827;53.024;6.596;2024-03-25T15:09:18;16.90;43.70
52963;DHT22;38827;53.024;6.596;2024-03-25T15:11:59;17.80;41.30
52963;DHT22;38827;53.024;6.596;2024-03-25T15:14:34;18.40;41.00
52963;DHT22;38827;53.024;6.596;2024-03-25T15:17:12;18.90;40.30
52963;DHT22;38827;53.024;6.596;2024-03-25T15:19:37;19.50;39.90
52963;DHT22;38827;53.024;6.596;2024-03-25T15:22:03;19.90;39.90
52963;DHT22;38827;53.024;6.596;2024-03-25T15:24:41;20.00;39.40
52963;DHT22;38827;53.024;6.596;2024-03-25T15:27:08;19.70;38.70
52963;DHT22;38827;53.024;6.596;2024-03-25T15:37:00;20.50;37.80
52963;DHT22;38827;53.024;6.596;2024-03-25T15:43:09;20.70;37.00
52963;DHT22;38827;53.024;6.596;2024-03-25T15:45:57;20.30;38.30
52963;DHT22;38827;53.024;6.596;2024-03-25T15:48:52;19.90;38.60
52963;DHT22;38827;53.024;6.596;2024-03-25T15:51:45;19.40;38.80
52963;DHT22;38827;53.024;6.596;2024-03-25T15:54:11;18.90;39.30
52963;DHT22;38827;53.024;6.596;2024-03-25T15:56:40;18.10;40.50
52963;DHT22;38827;53.024;6.596;2024-03-25T15:59:10;17.40;41.70
52963;DHT22;38827;53.024;6.596;2024-03-25T17:01:41;12.20;52.80
52963;DHT22;38827;53.024;6.596;2024-03-25T17:07:40;12.00;53.10
52963;DHT22;38827;53.024;6.596;2024-03-25T17:13:13;11.70;53.80
52963;DHT22;38827;53.024;6.596;2024-03-25T17:15:39;11.70;54.40
52963;DHT22;38827;53.024;6.596;2024-03-25T17:18:30;11.50;54.60
52963;DHT22;38827;53.024;6.596;2024-03-25T17:20:59;11.40;55.20
52963;DHT22;38827;53.024;6.596;2024-03-25T17:23:54;11.30;55.10
52963;DHT22;38827;53.024;6.596;2024-03-25T18:49:28;8.90;63.40
52963;DHT22;38827;53.024;6.596;2024-03-25T18:52:02;9.10;63.60
52963;DHT22;38827;53.024;6.596;2024-03-25T19:11:37;8.20;65.70
52963;DHT22;38827;53.024;6.596;2024-03-25T19:41:53;7.60;68.70
52963;DHT22;38827;53.024;6.596;2024-03-25T19:44:23;7.60;69.00
52963;DHT22;38827;53.024;6.596;2024-03-25T20:17:05;7.20;70.80
52963;DHT22;38827;53.024;6.596;2024-03-25T20:20:11;7.20;70.60
52963;DHT22;38827;53.024;6.596;2024-03-25T20:22:58;7.10;70.80
52963;DHT22;38827;53.024;6.596;2024-03-25T20:25:39;7.10;70.70
52963;DHT22;38827;53.024;6.596;2024-03-25T20:28:33;7.10;70.90
52963;DHT22;38827;53.024;6.596;2024-03-25T20:31:08;7.00;71.00
52963;DHT22;38827;53.024;6.596;2024-03-25T20:33:52;7.00;71.00
52963;DHT22;38827;53.024;6.596;2024-03-25T20:36:20;7.00;71.00
52963;DHT22;38827;53.024;6.596;2024-03-25T20:39:18;7.00;71.10
52963;DHT22;38827;53.024;6.596;2024-03-25T20:41:53;7.00;71.10
52963;DHT22;38827;53.024;6.596;2024-03-25T20:44:20;6.90;71.10
52963;DHT22;38827;53.024;6.596;2024-03-25T20:46:46;6.90;71.10
52963;DHT22;38827;53.024;6.596;2024-03-25T20:49:12;6.90;71.10
52963;DHT22;38827;53.024;6.596;2024-03-25T20:51:37;6.90;71.10
52963;DHT22;38827;53.024;6.596;2024-03-25T21:03:07;6.80;71.20
52963;DHT22;38827;53.024;6.596;2024-03-25T21:54:02;6.30;72.10
52963;DHT22;38827;53.024;6.596;2024-03-25T21:56:30;6.30;72.10
52963;DHT22;38827;53.024;6.596;2024-03-25T21:59:19;6.30;72.10
52963;DHT22;38827;53.024;6.596;2024-03-25T22:01:55;6.30;72.20
52963;DHT22;38827;53.024;6.596;2024-03-25T22:04:45;6.30;72.20
52963;DHT22;38827;53.024;6.596;2024-03-25T22:07:11;6.20;72.40
52963;DHT22;38827;53.024;6.596;2024-03-25T22:09:46;6.20;72.50
52963;DHT22;38827;53.024;6.596;2024-03-25T22:18:58;6.10;72.60
52963;DHT22;38827;53.024;6.596;2024-03-25T22:21:43;6.20;72.70
52963;DHT22;38827;53.024;6.596;2024-03-25T22:24:09;6.10;72.70
52963;DHT22;38827;53.024;6.596;2024-03-25T22:26:41;6.10;72.80
52963;DHT22;38827;53.024;6.596;2024-03-25T22:29:26;6.10;73.00
52963;DHT22;38827;53.024;6.596;2024-03-25T22:31:51;6.10;73.10
52963;DHT22;38827;53.024;6.596;2024-03-25T22:34:17;6.10;73.10
52963;DHT22;38827;53.024;6.596;2024-03-25T22:36:42;6.10;73.10
52963;DHT22;38827;53.024;6.596;2024-03-25T22:39:08;6.00;73.20
52963;DHT22;38827;53.024;6.596;2024-03-25T22:41:34;6.00;73.30
52963;DHT22;38827;53.024;6.596;2024-03-25T22:44:00;6.00;73.40
52963;DHT22;38827;53.024;6.596;2024-03-25T22:46:26;6.00;73.50
52963;DHT22;38827;53.024;6.596;2024-03-25T22:48:51;6.00;73.60
52963;DHT22;38827;53.024;6.596;2024-03-25T22:51:20;6.00;73.60
52963;DHT22;38827;53.024;6.596;2024-03-25T22:53:45;6.00;73.70
52963;DHT22;38827;53.024;6.596;2024-03-25T22:56:11;6.00;73.80
52963;DHT22;38827;53.024;6.596;2024-03-25T22:58:39;5.90;73.80
52963;DHT22;38827;53.024;6.596;2024-03-25T23:01:09;5.90;73.80
52963;DHT22;38827;53.024;6.596;2024-03-25T23:03:38;5.90;73.90
52963;DHT22;38827;53.024;6.596;2024-03-25T23:06:04;5.90;74.00
52963;DHT22;38827;53.024;6.596;2024-03-25T23:08:30;5.90;74.00
52963;DHT22;38827;53.024;6.596;2024-03-25T23:10:57;5.90;74.10
52963;DHT22;38827;53.024;6.596;2024-03-25T23:13:22;5.90;74.10
52963;DHT22;38827;53.024;6.596;2024-03-25T23:15:51;5.90;74.20
52963;DHT22;38827;53.024;6.596;2024-03-25T23:18:17;5.80;74.30
52963;DHT22;38827;53.024;6.596;2024-03-25T23:20:45;5.80;74.30
52963;DHT22;38827;53.024;6.596;2024-03-25T23:23:11;5.80;74.30
52963;DHT22;38827;53.024;6.596;2024-03-25T23:25:39;5.80;74.40
52963;DHT22;38827;53.024;6.596;2024-03-25T23:28:05;5.70;74.40
52963;DHT22;38827;53.024;6.596;2024-03-25T23:30:31;5.70;74.60
52963;DHT22;38827;53.024;6.596;2024-03-25T23:32:57;5.70;74.60
52963;DHT22;38827;53.024;6.596;2024-03-25T23:35:23;5.70;74.70
52963;DHT22;38827;53.024;6.596;2024-03-25T23:37:49;5.60;74.90
52963;DHT22;38827;53.024;6.596;2024-03-25T23:40:15;5.70;74.80
52963;DHT22;38827;53.024;6.596;2024-03-25T23:42:42;5.60;74.90
